sensor_id;sensor_type;location;lat;lon;timestamp;P1;durP1;ratioP1;P2;durP2;ratioP2
15504;SDS011;7854;52.184;5.942;2023-08-07T00:04:09;2;;;0;;
15504;SDS011;7854;52.184;5.942;2023-08-07T00:04:17;4;;;0;;
15504;SDS011;7854;52.184;5.942;2023-08-07T00:06:32;0;;;0;;
15504;SDS011;7854;52.184;5.942;2023-08-07T00:08:47;3;;;1;;
15504;SDS011;7854;52.184;5.942;2023-08-07T00:11:05;2;;;1;;
15504;SDS011;7854;52.184;5.942;2023-08-07T00:13:15;2;;;0;;
15504;SDS011;7854;52.184;5.942;2023-08-07T00:15:30;2;;;0;;
15504;SDS011;7854;52.184;5.942;2023-08-07T00:17:44;7;;;1;;
15504;SDS011;7854;52.184;5.942;2023-08-07T00:19:59;5;;;0;;
15504;SDS011;7854;52.184;5.942;2023-08-07T00:22:13;1;;;0;;
15504;SDS011;7854;52.184;5.942;2023-08-07T00:24:27;2;;;0;;
15504;SDS011;7854;52.184;5.942;2023-08-07T00:26:42;4;;;0;;
15504;SDS011;7854;52.184;5.942;2023-08-07T00:28:56;1;;;0;;
15504;SDS011;7854;52.184;5.942;2023-08-07T00:31:11;1;;;0;;
15504;SDS011;7854;52.184;5.942;2023-08-07T00:33:25;3;;;1;;
15504;SDS011;7854;52.184;5.942;2023-08-07T00:35:40;1;;;1;;
15504;SDS011;7854;52.184;5.942;2023-08-07T00:37:55;1;;;1;;
15504;SDS011;7854;52.184;5.942;2023-08-07T00:40:09;3;;;1;;
15504;SDS011;7854;52.184;5.942;2023-08-07T00:42:23;6;;;2;;
15504;SDS011;7854;52.184;5.942;2023-08-07T00:44:38;2;;;1;;
15504;SDS011;7854;52.184;5.942;2023-08-07T00:46:52;2;;;1;;
15504;SDS011;7854;52.184;5.942;2023-08-07T00:49:07;9;;;1;;
15504;SDS011;7854;52.184;5.942;2023-08-07T00:51:21;9;;;1;;
15504;SDS011;7854;52.184;5.942;2023-08-07T00:53:37;9;;;2;;
15504;SDS011;7854;52.184;5.942;2023-08-07T00:55:49;3;;;1;;
15504;SDS011;7854;52.184;5.942;2023-08-07T00:58:03;2;;;1;;
15504;SDS011;7854;52.184;5.942;2023-08-07T01:00:18;8;;;1;;
15504;SDS011;7854;52.184;5.942;2023-08-07T01:02:32;3;;;2;;
15504;SDS011;7854;52.184;5.942;2023-08-07T01:04:47;7;;;2;;
15504;SDS011;7854;52.184;5.942;2023-08-07T01:07:01;11;;;2;;
15504;SDS011;7854;52.184;5.942;2023-08-07T01:09:16;4;;;1;;
15504;SDS011;7854;52.184;5.942;2023-08-07T01:11:30;8;;;1;;
15504;SDS011;7854;52.184;5.942;2023-08-07T01:13:45;2;;;1;;
15504;SDS011;7854;52.184;5.942;2023-08-07T01:15:59;6;;;2;;
15504;SDS011;7854;52.184;5.942;2023-08-07T01:18:12;7;;;1;;
15504;SDS011;7854;52.184;5.942;2023-08-07T01:20:26;8;;;1;;
15504;SDS011;7854;52.184;5.942;2023-08-07T01:22:40;3;;;2;;
15504;SDS011;7854;52.184;5.942;2023-08-07T01:24:55;4;;;1;;
15504;SDS011;7854;52.184;5.942;2023-08-07T01:27:13;6;;;1;;
15504;SDS011;7854;52.184;5.942;2023-08-07T01:29:25;5;;;1;;
15504;SDS011;7854;52.184;5.942;2023-08-07T01:31:38;5;;;2;;
15504;SDS011;7854;52.184;5.942;2023-08-07T01:33:54;6;;;2;;
15504;SDS011;7854;52.184;5.942;2023-08-07T01:36:07;7;;;1;;
15504;SDS011;7854;52.184;5.942;2023-08-07T01:38:23;4;;;3;;
15504;SDS011;7854;52.184;5.942;2023-08-07T01:40:36;10;;;2;;
15504;SDS011;7854;52.184;5.942;2023-08-07T01:42:50;14;;;3;;
15504;SDS011;7854;52.184;5.942;2023-08-07T01:45:05;5;;;1;;
15504;SDS011;7854;52.184;5.942;2023-08-07T01:47:19;11;;;2;;
15504;SDS011;7854;52.184;5.942;2023-08-07T01:49:33;4;;;2;;
15504;SDS011;7854;52.184;5.942;2023-08-07T01:51:48;19;;;2;;
15504;SDS011;7854;52.184;5.942;2023-08-07T01:54:03;5;;;2;;
15504;SDS011;7854;52.184;5.942;2023-08-07T01:56:17;8;;;3;;
15504;SDS011;7854;52.184;5.942;2023-08-07T01:58:30;9;;;2;;
15504;SDS011;7854;52.184;5.942;2023-08-07T02:00:45;4;;;2;;
15504;SDS011;7854;52.184;5.942;2023-08-07T02:02:59;4;;;1;;
15504;SDS011;7854;52.184;5.942;2023-08-07T02:05:14;3;;;1;;
15504;SDS011;7854;52.184;5.942;2023-08-07T02:07:28;13;;;3;;
15504;SDS011;7854;52.184;5.942;2023-08-07T02:09:43;9;;;2;;
15504;SDS011;7854;52.184;5.942;2023-08-07T02:11:57;3;;;2;;
15504;SDS011;7854;52.184;5.942;2023-08-07T02:14:12;7;;;2;;
15504;SDS011;7854;52.184;5.942;2023-08-07T02:16:26;5;;;2;;
15504;SDS011;7854;52.184;5.942;2023-08-07T02:18:41;3;;;2;;
15504;SDS011;7854;52.184;5.942;2023-08-07T02:20:55;3;;;2;;
15504;SDS011;7854;52.184;5.942;2023-08-07T02:23:10;5;;;1;;
15504;SDS011;7854;52.184;5.942;2023-08-07T02:27:38;8;;;2;;
15504;SDS011;7854;52.184;5.942;2023-08-07T02:29:53;9;;;2;;
15504;SDS011;7854;52.184;5.942;2023-08-07T02:32:07;6;;;2;;
15504;SDS011;7854;52.184;5.942;2023-08-07T02:34:21;5;;;2;;
15504;SDS011;7854;52.184;5.942;2023-08-07T02:36:36;14;;;3;;
15504;SDS011;7854;52.184;5.942;2023-08-07T02:38:50;8;;;4;;
15504;SDS011;7854;52.184;5.942;2023-08-07T02:41:05;11;;;3;;
15504;SDS011;7854;52.184;5.942;2023-08-07T02:43:19;6;;;2;;
15504;SDS011;7854;52.184;5.942;2023-08-07T02:45:34;3;;;1;;
15504;SDS011;7854;52.184;5.942;2023-08-07T02:47:49;6;;;2;;
15504;SDS011;7854;52.184;5.942;2023-08-07T02:50:03;8;;;2;;
15504;SDS011;7854;52.184;5.942;2023-08-07T02:52:17;7;;;2;;
15504;SDS011;7854;52.184;5.942;2023-08-07T02:54:32;6;;;2;;
15504;SDS011;7854;52.184;5.942;2023-08-07T02:56:46;2;;;1;;
15504;SDS011;7854;52.184;5.942;2023-08-07T02:59:01;8;;;2;;
15504;SDS011;7854;52.184;5.942;2023-08-07T03:01:15;6;;;2;;
15504;SDS011;7854;52.184;5.942;2023-08-07T03:03:29;4;;;2;;
15504;SDS011;7854;52.184;5.942;2023-08-07T03:05:47;5;;;1;;
15504;SDS011;7854;52.184;5.942;2023-08-07T03:07:58;7;;;2;;
15504;SDS011;7854;52.184;5.942;2023-08-07T03:10:13;5;;;3;;
15504;SDS011;7854;52.184;5.942;2023-08-07T03:12:27;11;;;2;;
15504;SDS011;7854;52.184;5.942;2023-08-07T03:14:42;3;;;2;;
15504;SDS011;7854;52.184;5.942;2023-08-07T03:16:56;2;;;1;;
15504;SDS011;7854;52.184;5.942;2023-08-07T03:19:11;4;;;2;;
15504;SDS011;7854;52.184;5.942;2023-08-07T03:21:25;8;;;2;;
15504;SDS011;7854;52.184;5.942;2023-08-07T03:23:39;4;;;3;;
15504;SDS011;7854;52.184;5.942;2023-08-07T03:26:01;6;;;3;;
15504;SDS011;7854;52.184;5.942;2023-08-07T03:28:08;5;;;2;;
15504;SDS011;7854;52.184;5.942;2023-08-07T03:30:23;4;;;2;;
15504;SDS011;7854;52.184;5.942;2023-08-07T03:32:37;11;;;2;;
15504;SDS011;7854;52.184;5.942;2023-08-07T03:34:52;6;;;3;;
15504;SDS011;7854;52.184;5.942;2023-08-07T03:37:07;8;;;3;;
15504;SDS011;7854;52.184;5.942;2023-08-07T03:39:21;8;;;3;;
15504;SDS011;7854;52.184;5.942;2023-08-07T03:41:35;7;;;3;;
15504;SDS011;7854;52.184;5.942;2023-08-07T03:43:50;2;;;1;;
15504;SDS011;7854;52.184;5.942;2023-08-07T03:46:04;6;;;2;;
15504;SDS011;7854;52.184;5.942;2023-08-07T03:48:18;13;;;2;;
15504;SDS011;7854;52.184;5.942;2023-08-07T03:50:33;7;;;4;;
15504;SDS011;7854;52.184;5.942;2023-08-07T03:52:47;5;;;3;;
15504;SDS011;7854;52.184;5.942;2023-08-07T03:57:16;10;;;2;;
15504;SDS011;7854;52.184;5.942;2023-08-07T03:59:31;8;;;3;;
15504;SDS011;7854;52.184;5.942;2023-08-07T04:01:45;5;;;2;;
15504;SDS011;7854;52.184;5.942;2023-08-07T04:03:59;4;;;2;;
15504;SDS011;7854;52.184;5.942;2023-08-07T04:06:14;10;;;2;;
15504;SDS011;7854;52.184;5.942;2023-08-07T04:08:28;5;;;2;;
15504;SDS011;7854;52.184;5.942;2023-08-07T04:10:42;3;;;2;;
15504;SDS011;7854;52.184;5.942;2023-08-07T04:12:57;3;;;2;;
15504;SDS011;7854;52.184;5.942;2023-08-07T04:15:11;9;;;3;;
15504;SDS011;7854;52.184;5.942;2023-08-07T04:17:26;4;;;3;;
15504;SDS011;7854;52.184;5.942;2023-08-07T04:19:40;2;;;2;;
15504;SDS011;7854;52.184;5.942;2023-08-07T04:21:54;4;;;2;;
15504;SDS011;7854;52.184;5.942;2023-08-07T04:24:09;11;;;2;;
15504;SDS011;7854;52.184;5.942;2023-08-07T04:26:23;3;;;2;;
15504;SDS011;7854;52.184;5.942;2023-08-07T04:28:37;4;;;3;;
15504;SDS011;7854;52.184;5.942;2023-08-07T04:30:52;2;;;1;;
15504;SDS011;7854;52.184;5.942;2023-08-07T04:33:07;6;;;3;;
15504;SDS011;7854;52.184;5.942;2023-08-07T04:35:21;11;;;3;;
15504;SDS011;7854;52.184;5.942;2023-08-07T04:37:35;9;;;2;;
15504;SDS011;7854;52.184;5.942;2023-08-07T04:39:50;3;;;2;;
15504;SDS011;7854;52.184;5.942;2023-08-07T04:42:04;2;;;2;;
15504;SDS011;7854;52.184;5.942;2023-08-07T04:44:18;10;;;4;;
15504;SDS011;7854;52.184;5.942;2023-08-07T04:46:33;4;;;3;;
15504;SDS011;7854;52.184;5.942;2023-08-07T04:48:47;3;;;2;;
15504;SDS011;7854;52.184;5.942;2023-08-07T04:51:02;4;;;3;;
15504;SDS011;7854;52.184;5.942;2023-08-07T04:53:16;4;;;3;;
15504;SDS011;7854;52.184;5.942;2023-08-07T04:55:31;5;;;2;;
15504;SDS011;7854;52.184;5.942;2023-08-07T04:57:45;12;;;3;;
15504;SDS011;7854;52.184;5.942;2023-08-07T05:00:00;2;;;2;;
15504;SDS011;7854;52.184;5.942;2023-08-07T05:02:14;8;;;2;;
15504;SDS011;7854;52.184;5.942;2023-08-07T05:04:29;1;;;1;;
15504;SDS011;7854;52.184;5.942;2023-08-07T05:06:43;3;;;2;;
15504;SDS011;7854;52.184;5.942;2023-08-07T05:08:58;2;;;1;;
15504;SDS011;7854;52.184;5.942;2023-08-07T05:11:12;4;;;1;;
15504;SDS011;7854;52.184;5.942;2023-08-07T05:13:26;4;;;2;;
15504;SDS011;7854;52.184;5.942;2023-08-07T05:15:41;3;;;2;;
15504;SDS011;7854;52.184;5.942;2023-08-07T05:17:55;3;;;2;;
15504;SDS011;7854;52.184;5.942;2023-08-07T05:20:10;4;;;1;;
15504;SDS011;7854;52.184;5.942;2023-08-07T05:22:24;7;;;2;;
15504;SDS011;7854;52.184;5.942;2023-08-07T05:26:53;4;;;2;;
15504;SDS011;7854;52.184;5.942;2023-08-07T05:29:07;3;;;3;;
15504;SDS011;7854;52.184;5.942;2023-08-07T05:31:22;2;;;2;;
15504;SDS011;7854;52.184;5.942;2023-08-07T05:33:36;4;;;2;;
15504;SDS011;7854;52.184;5.942;2023-08-07T05:35:51;10;;;3;;
15504;SDS011;7854;52.184;5.942;2023-08-07T05:38:05;4;;;2;;
15504;SDS011;7854;52.184;5.942;2023-08-07T05:40:20;6;;;2;;
15504;SDS011;7854;52.184;5.942;2023-08-07T05:42:34;5;;;3;;
15504;SDS011;7854;52.184;5.942;2023-08-07T05:44:49;4;;;2;;
15504;SDS011;7854;52.184;5.942;2023-08-07T05:47:03;5;;;2;;
15504;SDS011;7854;52.184;5.942;2023-08-07T05:49:17;5;;;2;;
15504;SDS011;7854;52.184;5.942;2023-08-07T05:51:32;12;;;4;;
15504;SDS011;7854;52.184;5.942;2023-08-07T05:53:46;7;;;4;;
15504;SDS011;7854;52.184;5.942;2023-08-07T05:56:00;8;;;4;;
15504;SDS011;7854;52.184;5.942;2023-08-07T05:58:15;4;;;3;;
15504;SDS011;7854;52.184;5.942;2023-08-07T06:00:29;7;;;3;;
15504;SDS011;7854;52.184;5.942;2023-08-07T06:02:44;15;;;3;;
15504;SDS011;7854;52.184;5.942;2023-08-07T06:04:59;10;;;4;;
15504;SDS011;7854;52.184;5.942;2023-08-07T06:07:13;12;;;3;;
15504;SDS011;7854;52.184;5.942;2023-08-07T06:09:27;3;;;2;;
15504;SDS011;7854;52.184;5.942;2023-08-07T06:11:42;4;;;3;;
15504;SDS011;7854;52.184;5.942;2023-08-07T06:13:56;12;;;4;;
15504;SDS011;7854;52.184;5.942;2023-08-07T06:16:11;3;;;2;;
15504;SDS011;7854;52.184;5.942;2023-08-07T06:18:25;4;;;3;;
15504;SDS011;7854;52.184;5.942;2023-08-07T06:20:40;10;;;4;;
15504;SDS011;7854;52.184;5.942;2023-08-07T06:22:54;11;;;4;;
15504;SDS011;7854;52.184;5.942;2023-08-07T06:25:09;10;;;4;;
15504;SDS011;7854;52.184;5.942;2023-08-07T06:27:23;10;;;5;;
15504;SDS011;7854;52.184;5.942;2023-08-07T06:29:40;15;;;7;;
15504;SDS011;7854;52.184;5.942;2023-08-07T06:31:52;21;;;6;;
15504;SDS011;7854;52.184;5.942;2023-08-07T06:34:06;5;;;4;;
15504;SDS011;7854;52.184;5.942;2023-08-07T06:36:21;15;;;5;;
15504;SDS011;7854;52.184;5.942;2023-08-07T06:38:35;30;;;7;;
15504;SDS011;7854;52.184;5.942;2023-08-07T06:40:50;8;;;5;;
15504;SDS011;7854;52.184;5.942;2023-08-07T06:43:04;13;;;5;;
15504;SDS011;7854;52.184;5.942;2023-08-07T06:45:18;20;;;5;;
15504;SDS011;7854;52.184;5.942;2023-08-07T06:47:32;10;;;4;;
15504;SDS011;7854;52.184;5.942;2023-08-07T06:49:46;19;;;5;;
15504;SDS011;7854;52.184;5.942;2023-08-07T06:52:01;16;;;5;;
15504;SDS011;7854;52.184;5.942;2023-08-07T06:54:15;13;;;5;;
15504;SDS011;7854;52.184;5.942;2023-08-07T06:56:30;13;;;5;;
15504;SDS011;7854;52.184;5.942;2023-08-07T06:58:44;12;;;4;;
15504;SDS011;7854;52.184;5.942;2023-08-07T07:00:59;9;;;5;;
15504;SDS011;7854;52.184;5.942;2023-08-07T07:03:14;18;;;6;;
15504;SDS011;7854;52.184;5.942;2023-08-07T07:05:31;10;;;4;;
15504;SDS011;7854;52.184;5.942;2023-08-07T07:07:42;11;;;4;;
15504;SDS011;7854;52.184;5.942;2023-08-07T07:09:56;9;;;4;;
15504;SDS011;7854;52.184;5.942;2023-08-07T07:12:11;7;;;3;;
15504;SDS011;7854;52.184;5.942;2023-08-07T07:14:25;14;;;4;;
15504;SDS011;7854;52.184;5.942;2023-08-07T07:16:39;10;;;4;;
15504;SDS011;7854;52.184;5.942;2023-08-07T07:18:54;9;;;3;;
15504;SDS011;7854;52.184;5.942;2023-08-07T07:21:09;7;;;3;;
15504;SDS011;7854;52.184;5.942;2023-08-07T07:23:24;16;;;4;;
15504;SDS011;7854;52.184;5.942;2023-08-07T07:25:38;7;;;3;;
15504;SDS011;7854;52.184;5.942;2023-08-07T07:27:52;6;;;3;;
15504;SDS011;7854;52.184;5.942;2023-08-07T07:30:07;8;;;3;;
15504;SDS011;7854;52.184;5.942;2023-08-07T07:32:21;18;;;4;;
15504;SDS011;7854;52.184;5.942;2023-08-07T07:34:35;4;;;3;;
15504;SDS011;7854;52.184;5.942;2023-08-07T07:36:50;3;;;3;;
15504;SDS011;7854;52.184;5.942;2023-08-07T07:39:04;10;;;3;;
15504;SDS011;7854;52.184;5.942;2023-08-07T07:41:19;3;;;3;;
15504;SDS011;7854;52.184;5.942;2023-08-07T07:43:33;9;;;2;;
15504;SDS011;7854;52.184;5.942;2023-08-07T07:45:48;3;;;2;;
15504;SDS011;7854;52.184;5.942;2023-08-07T07:48:02;8;;;2;;
15504;SDS011;7854;52.184;5.942;2023-08-07T07:50:16;5;;;2;;
15504;SDS011;7854;52.184;5.942;2023-08-07T07:52:31;5;;;2;;
15504;SDS011;7854;52.184;5.942;2023-08-07T07:54:45;7;;;2;;
15504;SDS011;7854;52.184;5.942;2023-08-07T07:56:59;10;;;2;;
15504;SDS011;7854;52.184;5.942;2023-08-07T07:59:13;4;;;1;;
15504;SDS011;7854;52.184;5.942;2023-08-07T08:01:27;4;;;2;;
15504;SDS011;7854;52.184;5.942;2023-08-07T08:03:41;3;;;2;;
15504;SDS011;7854;52.184;5.942;2023-08-07T08:05:56;9;;;1;;
15504;SDS011;7854;52.184;5.942;2023-08-07T08:08:10;4;;;1;;
15504;SDS011;7854;52.184;5.942;2023-08-07T08:10:25;4;;;1;;
15504;SDS011;7854;52.184;5.942;2023-08-07T08:12:39;8;;;2;;
15504;SDS011;7854;52.184;5.942;2023-08-07T08:14:53;3;;;1;;
15504;SDS011;7854;52.184;5.942;2023-08-07T08:17:08;3;;;1;;
15504;SDS011;7854;52.184;5.942;2023-08-07T08:19:22;2;;;1;;
15504;SDS011;7854;52.184;5.942;2023-08-07T08:21:37;5;;;1;;
15504;SDS011;7854;52.184;5.942;2023-08-07T08:23:50;6;;;1;;
15504;SDS011;7854;52.184;5.942;2023-08-07T08:26:04;3;;;1;;
15504;SDS011;7854;52.184;5.942;2023-08-07T08:28:19;4;;;1;;
15504;SDS011;7854;52.184;5.942;2023-08-07T08:30:34;4;;;1;;
15504;SDS011;7854;52.184;5.942;2023-08-07T08:32:48;2;;;1;;
15504;SDS011;7854;52.184;5.942;2023-08-07T08:35:02;7;;;1;;
15504;SDS011;7854;52.184;5.942;2023-08-07T08:37:17;6;;;2;;
15504;SDS011;7854;52.184;5.942;2023-08-07T08:39:31;6;;;1;;
15504;SDS011;7854;52.184;5.942;2023-08-07T08:41:46;3;;;1;;
15504;SDS011;7854;52.184;5.942;2023-08-07T08:44:01;3;;;1;;
15504;SDS011;7854;52.184;5.942;2023-08-07T08:46:15;5;;;1;;
15504;SDS011;7854;52.184;5.942;2023-08-07T08:48:28;3;;;1;;
15504;SDS011;7854;52.184;5.942;2023-08-07T08:50:43;1;;;1;;
15504;SDS011;7854;52.184;5.942;2023-08-07T08:52:57;2;;;1;;
15504;SDS011;7854;52.184;5.942;2023-08-07T08:55:12;6;;;1;;
15504;SDS011;7854;52.184;5.942;2023-08-07T08:57:26;4;;;1;;
15504;SDS011;7854;52.184;5.942;2023-08-07T08:59:41;5;;;1;;
15504;SDS011;7854;52.184;5.942;2023-08-07T09:01:55;12;;;1;;
15504;SDS011;7854;52.184;5.942;2023-08-07T09:04:09;3;;;1;;
15504;SDS011;7854;52.184;5.942;2023-08-07T09:06:24;4;;;1;;
15504;SDS011;7854;52.184;5.942;2023-08-07T09:08:38;2;;;0;;
15504;SDS011;7854;52.184;5.942;2023-08-07T09:10:52;1;;;0;;
15504;SDS011;7854;52.184;5.942;2023-08-07T09:13:08;7;;;1;;
15504;SDS011;7854;52.184;5.942;2023-08-07T09:15:22;4;;;1;;
15504;SDS011;7854;52.184;5.942;2023-08-07T09:17:38;6;;;1;;
15504;SDS011;7854;52.184;5.942;2023-08-07T09:19:50;2;;;1;;
15504;SDS011;7854;52.184;5.942;2023-08-07T09:22:05;4;;;1;;
15504;SDS011;7854;52.184;5.942;2023-08-07T09:24:19;1;;;1;;
15504;SDS011;7854;52.184;5.942;2023-08-07T09:26:34;4;;;1;;
15504;SDS011;7854;52.184;5.942;2023-08-07T09:28:48;1;;;0;;
15504;SDS011;7854;52.184;5.942;2023-08-07T09:31:02;1;;;1;;
15504;SDS011;7854;52.184;5.942;2023-08-07T09:33:19;1;;;1;;
15504;SDS011;7854;52.184;5.942;2023-08-07T09:35:32;1;;;0;;
15504;SDS011;7854;52.184;5.942;2023-08-07T09:37:46;1;;;1;;
15504;SDS011;7854;52.184;5.942;2023-08-07T09:40:00;1;;;0;;
15504;SDS011;7854;52.184;5.942;2023-08-07T09:42:15;2;;;1;;
15504;SDS011;7854;52.184;5.942;2023-08-07T09:44:34;3;;;1;;
15504;SDS011;7854;52.184;5.942;2023-08-07T09:48:58;1;;;0;;
15504;SDS011;7854;52.184;5.942;2023-08-07T09:51:13;3;;;1;;
15504;SDS011;7854;52.184;5.942;2023-08-07T09:53:27;5;;;1;;
15504;SDS011;7854;52.184;5.942;2023-08-07T09:55:41;1;;;1;;
15504;SDS011;7854;52.184;5.942;2023-08-07T09:57:56;1;;;1;;
15504;SDS011;7854;52.184;5.942;2023-08-07T10:00:10;1;;;1;;
15504;SDS011;7854;52.184;5.942;2023-08-07T10:02:25;2;;;0;;
15504;SDS011;7854;52.184;5.942;2023-08-07T10:04:39;1;;;1;;
15504;SDS011;7854;52.184;5.942;2023-08-07T10:06:54;3;;;1;;
15504;SDS011;7854;52.184;5.942;2023-08-07T10:09:08;3;;;1;;
15504;SDS011;7854;52.184;5.942;2023-08-07T10:11:23;2;;;1;;
15504;SDS011;7854;52.184;5.942;2023-08-07T10:13:37;3;;;1;;
15504;SDS011;7854;52.184;5.942;2023-08-07T10:15:52;1;;;1;;
15504;SDS011;7854;52.184;5.942;2023-08-07T10:18:06;1;;;0;;
15504;SDS011;7854;52.184;5.942;2023-08-07T10:20:20;2;;;1;;
15504;SDS011;7854;52.184;5.942;2023-08-07T10:22:35;0;;;0;;
15504;SDS011;7854;52.184;5.942;2023-08-07T10:24:50;2;;;1;;
15504;SDS011;7854;52.184;5.942;2023-08-07T10:27:04;6;;;1;;
15504;SDS011;7854;52.184;5.942;2023-08-07T10:29:18;3;;;1;;
15504;SDS011;7854;52.184;5.942;2023-08-07T10:31:33;10;;;1;;
15504;SDS011;7854;52.184;5.942;2023-08-07T10:33:47;1;;;1;;
15504;SDS011;7854;52.184;5.942;2023-08-07T10:36:01;4;;;1;;
15504;SDS011;7854;52.184;5.942;2023-08-07T10:38:18;4;;;1;;
15504;SDS011;7854;52.184;5.942;2023-08-07T10:40:32;1;;;0;;
15504;SDS011;7854;52.184;5.942;2023-08-07T10:42:54;4;;;1;;
15504;SDS011;7854;52.184;5.942;2023-08-07T10:45:00;8;;;1;;
15504;SDS011;7854;52.184;5.942;2023-08-07T10:47:14;1;;;0;;
15504;SDS011;7854;52.184;5.942;2023-08-07T10:49:30;5;;;1;;
15504;SDS011;7854;52.184;5.942;2023-08-07T10:51:42;2;;;0;;
15504;SDS011;7854;52.184;5.942;2023-08-07T10:53:57;3;;;1;;
15504;SDS011;7854;52.184;5.942;2023-08-07T10:56:15;1;;;1;;
15504;SDS011;7854;52.184;5.942;2023-08-07T10:58:28;2;;;1;;
15504;SDS011;7854;52.184;5.942;2023-08-07T11:00:41;6;;;1;;
15504;SDS011;7854;52.184;5.942;2023-08-07T11:02:54;2;;;1;;
15504;SDS011;7854;52.184;5.942;2023-08-07T11:05:08;2;;;1;;
15504;SDS011;7854;52.184;5.942;2023-08-07T11:07:22;2;;;1;;
15504;SDS011;7854;52.184;5.942;2023-08-07T11:09:36;5;;;1;;
15504;SDS011;7854;52.184;5.942;2023-08-07T11:11:50;1;;;0;;
15504;SDS011;7854;52.184;5.942;2023-08-07T11:14:05;2;;;0;;
15504;SDS011;7854;52.184;5.942;2023-08-07T11:16:20;1;;;0;;
15504;SDS011;7854;52.184;5.942;2023-08-07T11:18:34;1;;;1;;
15504;SDS011;7854;52.184;5.942;2023-08-07T11:20:49;1;;;0;;
15504;SDS011;7854;52.184;5.942;2023-08-07T11:23:03;2;;;1;;
15504;SDS011;7854;52.184;5.942;2023-08-07T11:25:17;2;;;2;;
15504;SDS011;7854;52.184;5.942;2023-08-07T11:27:32;3;;;1;;
15504;SDS011;7854;52.184;5.942;2023-08-07T11:29:47;4;;;1;;
15504;SDS011;7854;52.184;5.942;2023-08-07T11:32:00;4;;;1;;
15504;SDS011;7854;52.184;5.942;2023-08-07T11:34:16;1;;;1;;
15504;SDS011;7854;52.184;5.942;2023-08-07T11:36:29;4;;;1;;
15504;SDS011;7854;52.184;5.942;2023-08-07T11:38:44;2;;;1;;
15504;SDS011;7854;52.184;5.942;2023-08-07T11:40:59;2;;;1;;
15504;SDS011;7854;52.184;5.942;2023-08-07T11:43:13;2;;;1;;
15504;SDS011;7854;52.184;5.942;2023-08-07T11:45:27;2;;;1;;
15504;SDS011;7854;52.184;5.942;2023-08-07T11:47:42;3;;;1;;
15504;SDS011;7854;52.184;5.942;2023-08-07T11:49:56;3;;;1;;
15504;SDS011;7854;52.184;5.942;2023-08-07T11:52:10;7;;;3;;
15504;SDS011;7854;52.184;5.942;2023-08-07T11:54:24;4;;;2;;
15504;SDS011;7854;52.184;5.942;2023-08-07T11:56:40;1;;;1;;
15504;SDS011;7854;52.184;5.942;2023-08-07T11:58:53;5;;;1;;
15504;SDS011;7854;52.184;5.942;2023-08-07T12:01:09;3;;;1;;
15504;SDS011;7854;52.184;5.942;2023-08-07T12:03:24;2;;;1;;
15504;SDS011;7854;52.184;5.942;2023-08-07T12:05:38;4;;;1;;
15504;SDS011;7854;52.184;5.942;2023-08-07T12:07:51;3;;;1;;
15504;SDS011;7854;52.184;5.942;2023-08-07T12:10:06;1;;;0;;
15504;SDS011;7854;52.184;5.942;2023-08-07T12:12:20;1;;;0;;
15504;SDS011;7854;52.184;5.942;2023-08-07T12:14:35;2;;;1;;
15504;SDS011;7854;52.184;5.942;2023-08-07T12:16:49;3;;;1;;
15504;SDS011;7854;52.184;5.942;2023-08-07T12:19:03;4;;;1;;
15504;SDS011;7854;52.184;5.942;2023-08-07T12:21:18;3;;;1;;
15504;SDS011;7854;52.184;5.942;2023-08-07T12:23:32;0;;;0;;
15504;SDS011;7854;52.184;5.942;2023-08-07T12:28:01;3;;;1;;
15504;SDS011;7854;52.184;5.942;2023-08-07T12:30:15;1;;;1;;
15504;SDS011;7854;52.184;5.942;2023-08-07T12:32:30;1;;;0;;
15504;SDS011;7854;52.184;5.942;2023-08-07T12:34:44;1;;;0;;
15504;SDS011;7854;52.184;5.942;2023-08-07T12:36:59;2;;;1;;
15504;SDS011;7854;52.184;5.942;2023-08-07T12:39:13;1;;;0;;
15504;SDS011;7854;52.184;5.942;2023-08-07T12:41:28;0;;;0;;
15504;SDS011;7854;52.184;5.942;2023-08-07T12:43:42;0;;;0;;
15504;SDS011;7854;52.184;5.942;2023-08-07T12:45:56;1;;;0;;
15504;SDS011;7854;52.184;5.942;2023-08-07T12:48:11;3;;;0;;
15504;SDS011;7854;52.184;5.942;2023-08-07T12:50:25;0;;;0;;
15504;SDS011;7854;52.184;5.942;2023-08-07T12:52:40;1;;;0;;
15504;SDS011;7854;52.184;5.942;2023-08-07T12:54:54;2;;;1;;
15504;SDS011;7854;52.184;5.942;2023-08-07T12:57:08;3;;;0;;
15504;SDS011;7854;52.184;5.942;2023-08-07T12:59:23;7;;;1;;
15504;SDS011;7854;52.184;5.942;2023-08-07T13:01:38;2;;;1;;
15504;SDS011;7854;52.184;5.942;2023-08-07T13:03:52;1;;;0;;
15504;SDS011;7854;52.184;5.942;2023-08-07T13:06:06;7;;;1;;
15504;SDS011;7854;52.184;5.942;2023-08-07T13:08:21;4;;;1;;
15504;SDS011;7854;52.184;5.942;2023-08-07T13:10:35;2;;;1;;
15504;SDS011;7854;52.184;5.942;2023-08-07T13:12:50;1;;;1;;
15504;SDS011;7854;52.184;5.942;2023-08-07T13:15:05;1;;;1;;
15504;SDS011;7854;52.184;5.942;2023-08-07T13:17:19;12;;;1;;
15504;SDS011;7854;52.184;5.942;2023-08-07T13:19:33;0;;;0;;
15504;SDS011;7854;52.184;5.942;2023-08-07T13:21:48;6;;;1;;
15504;SDS011;7854;52.184;5.942;2023-08-07T13:24:02;1;;;0;;
15504;SDS011;7854;52.184;5.942;2023-08-07T13:26:16;1;;;1;;
15504;SDS011;7854;52.184;5.942;2023-08-07T13:28:31;6;;;1;;
15504;SDS011;7854;52.184;5.942;2023-08-07T13:30:45;2;;;0;;
15504;SDS011;7854;52.184;5.942;2023-08-07T13:33:00;4;;;1;;
15504;SDS011;7854;52.184;5.942;2023-08-07T13:35:17;1;;;0;;
15504;SDS011;7854;52.184;5.942;2023-08-07T13:37:28;3;;;1;;
15504;SDS011;7854;52.184;5.942;2023-08-07T13:39:43;2;;;1;;
15504;SDS011;7854;52.184;5.942;2023-08-07T13:41:58;3;;;1;;
15504;SDS011;7854;52.184;5.942;2023-08-07T13:44:12;5;;;2;;
15504;SDS011;7854;52.184;5.942;2023-08-07T13:46:27;1;;;1;;
15504;SDS011;7854;52.184;5.942;2023-08-07T13:48:41;1;;;0;;
15504;SDS011;7854;52.184;5.942;2023-08-07T13:50:55;1;;;1;;
15504;SDS011;7854;52.184;5.942;2023-08-07T13:53:09;2;;;1;;
15504;SDS011;7854;52.184;5.942;2023-08-07T13:55:24;2;;;1;;
15504;SDS011;7854;52.184;5.942;2023-08-07T13:57:39;1;;;1;;
15504;SDS011;7854;52.184;5.942;2023-08-07T13:59:53;1;;;1;;
15504;SDS011;7854;52.184;5.942;2023-08-07T14:02:08;1;;;0;;
15504;SDS011;7854;52.184;5.942;2023-08-07T14:04:22;1;;;0;;
15504;SDS011;7854;52.184;5.942;2023-08-07T14:06:36;1;;;1;;
15504;SDS011;7854;52.184;5.942;2023-08-07T14:08:51;1;;;1;;
15504;SDS011;7854;52.184;5.942;2023-08-07T14:11:05;1;;;0;;
15504;SDS011;7854;52.184;5.942;2023-08-07T14:13:20;2;;;1;;
15504;SDS011;7854;52.184;5.942;2023-08-07T14:15:33;1;;;0;;
15504;SDS011;7854;52.184;5.942;2023-08-07T14:17:48;2;;;1;;
15504;SDS011;7854;52.184;5.942;2023-08-07T14:20:02;1;;;0;;
15504;SDS011;7854;52.184;5.942;2023-08-07T14:22:16;8;;;0;;
15504;SDS011;7854;52.184;5.942;2023-08-07T14:24:31;1;;;0;;
15504;SDS011;7854;52.184;5.942;2023-08-07T14:26:46;1;;;0;;
15504;SDS011;7854;52.184;5.942;2023-08-07T14:29:00;1;;;1;;
15504;SDS011;7854;52.184;5.942;2023-08-07T14:31:14;0;;;0;;
15504;SDS011;7854;52.184;5.942;2023-08-07T14:33:29;2;;;0;;
15504;SDS011;7854;52.184;5.942;2023-08-07T14:35:43;8;;;0;;
15504;SDS011;7854;52.184;5.942;2023-08-07T14:37:58;2;;;1;;
15504;SDS011;7854;52.184;5.942;2023-08-07T14:40:12;0;;;0;;
15504;SDS011;7854;52.184;5.942;2023-08-07T14:42:26;14;;;1;;
15504;SDS011;7854;52.184;5.942;2023-08-07T14:44:41;2;;;1;;
15504;SDS011;7854;52.184;5.942;2023-08-07T14:46:56;1;;;1;;
15504;SDS011;7854;52.184;5.942;2023-08-07T14:49:10;1;;;0;;
15504;SDS011;7854;52.184;5.942;2023-08-07T14:51:24;2;;;0;;
15504;SDS011;7854;52.184;5.942;2023-08-07T14:53:39;2;;;1;;
15504;SDS011;7854;52.184;5.942;2023-08-07T14:55:53;1;;;1;;
15504;SDS011;7854;52.184;5.942;2023-08-07T14:58:08;1;;;0;;
15504;SDS011;7854;52.184;5.942;2023-08-07T15:00:22;1;;;0;;
15504;SDS011;7854;52.184;5.942;2023-08-07T15:02:36;0;;;0;;
15504;SDS011;7854;52.184;5.942;2023-08-07T15:04:51;2;;;1;;
15504;SDS011;7854;52.184;5.942;2023-08-07T15:07:06;0;;;0;;
15504;SDS011;7854;52.184;5.942;2023-08-07T15:09:20;3;;;1;;
15504;SDS011;7854;52.184;5.942;2023-08-07T15:13:49;1;;;1;;
15504;SDS011;7854;52.184;5.942;2023-08-07T15:16:03;1;;;1;;
15504;SDS011;7854;52.184;5.942;2023-08-07T15:18:18;0;;;0;;